Time;durP1;ratioP1;P1;durP2;ratioP2;P2;SDS_P1;SDS_P2;PMS_P1;PMS_P2;Temp;Humidity;BMP_temperature;BMP_pressure;BME280_temperature;BME280_humidity;BME280_pressure;Samples;Min_cycle;Max_cycle;Signal;HPM_P1;HPM_P2
2022/12/10 00:01:55;;;;;;;54.08;22.92;;;;;;;-2.27;100.00;100537.06;4951644;28;20039;-80
2022/12/10 00:04:21;;;;;;;56.03;22.73;;;;;;;-2.28;100.00;100544.75;4954060;28;20032;-80
2022/12/10 00:06:47;;;;;;;50.20;22.33;;;;;;;-2.31;100.00;100547.47;4966975;28;20339;-79
2022/12/10 00:09:15;;;;;;;52.80;23.05;;;;;;;-2.35;100.00;100549.34;4954708;28;20725;-79
2022/12/10 00:11:42;;;;;;;50.97;22.67;;;;;;;-2.38;100.00;100541.88;4949634;28;20039;-84
2022/12/10 00:14:10;;;;;;;47.90;22.25;;;;;;;-2.41;100.00;100545.41;4948735;28;20051;-81
2022/12/10 00:16:36;;;;;;;52.45;22.63;;;;;;;-2.43;100.00;100543.84;4934527;29;20046;-80
2022/12/10 00:19:02;;;;;;;57.72;25.35;;;;;;;-2.47;100.00;100540.63;4931682;28;20039;-80
2022/12/10 00:21:32;;;;;;;48.45;23.10;;;;;;;-2.49;100.00;100549.22;4956315;28;20118;-79
2022/12/10 00:23:57;;;;;;;61.60;24.33;;;;;;;-2.51;100.00;100545.97;4935537;28;20054;-85
2022/12/10 00:26:25;;;;;;;55.38;23.17;;;;;;;-2.55;100.00;100542.75;4959789;28;20032;-80
2022/12/10 00:28:59;;;;;;;53.75;22.77;;;;;;;-2.58;100.00;100548.81;4964692;28;20035;-79
2022/12/10 00:31:31;;;;;;;53.75;23.48;;;;;;;-2.60;100.00;100547.22;4956838;28;20031;-82
2022/12/10 00:33:58;;;;;;;57.00;24.27;;;;;;;-2.63;100.00;100549.94;4948421;28;20048;-81
2022/12/10 00:36:33;;;;;;;58.08;26.05;;;;;;;-2.66;100.00;100548.38;4952929;28;20054;-81
2022/12/10 00:38:59;;;;;;;51.45;24.17;;;;;;;-2.69;100.00;100552.78;4982369;28;20126;-80
2022/12/10 00:41:27;;;;;;;58.13;23.90;;;;;;;-2.73;100.00;100552.13;4937026;28;20038;-81
2022/12/10 00:43:53;;;;;;;59.08;23.52;;;;;;;-2.76;100.00;100553.09;4942785;28;20039;-81
2022/12/10 00:46:19;;;;;;;56.60;23.92;;;;;;;-2.80;100.00;100554.13;4956078;28;20077;-80
2022/12/10 00:48:45;;;;;;;54.90;24.45;;;;;;;-2.82;100.00;100558.47;4950359;28;20032;-81
2022/12/10 00:51:20;;;;;;;57.83;23.83;;;;;;;-2.85;100.00;100548.47;4957155;28;20038;-82
2022/12/10 00:53:47;;;;;;;65.80;27.02;;;;;;;-2.87;100.00;100554.53;4964658;28;20051;-80
2022/12/10 00:56:14;;;;;;;60.80;24.63;;;;;;;-2.89;100.00;100557.13;4952430;28;20039;-81
2022/12/10 00:58:40;;;;;;;56.45;23.88;;;;;;;-2.90;100.00;100558.03;4946810;28;20042;-81
2022/12/10 01:01:11;;;;;;;60.35;23.52;;;;;;;-2.94;100.00;100562.44;4961537;28;20049;-82
2022/12/10 01:03:37;;;;;;;54.03;23.75;;;;;;;-2.98;100.00;100553.31;4955316;28;20093;-81
2022/12/10 01:06:15;;;;;;;52.25;23.23;;;;;;;-2.98;100.00;100557.56;4954988;28;20122;-79
2022/12/10 01:08:42;;;;;;;59.05;24.35;;;;;;;-3.02;100.00;100556.09;4938033;28;20039;-79
2022/12/10 01:11:10;;;;;;;53.78;23.38;;;;;;;-3.06;100.00;100555.41;4936404;28;20105;-79
2022/12/10 01:13:36;;;;;;;65.93;24.95;;;;;;;-3.09;100.00;100558.09;4954841;28;20035;-80
2022/12/10 01:16:04;;;;;;;53.10;24.02;;;;;;;-3.14;100.00;100560.84;4946470;28;20031;-82
2022/12/10 01:18:30;;;;;;;58.17;24.27;;;;;;;-3.17;100.00;100553.38;4937886;28;20035;-82
2022/12/10 01:21:01;;;;;;;51.38;24.38;;;;;;;-3.18;100.00;100556.84;4953221;28;20501;-79
2022/12/10 01:23:27;;;;;;;65.72;25.98;;;;;;;-3.20;100.00;100568.78;4937518;28;20384;-80
2022/12/10 01:25:52;;;;;;;62.45;25.92;;;;;;;-3.21;100.00;100563.75;4935852;28;20031;-80
2022/12/10 01:28:18;;;;;;;55.50;26.02;;;;;;;-3.22;100.00;100572.25;4936348;28;20093;-83
2022/12/10 01:30:44;;;;;;;57.13;24.63;;;;;;;-3.24;100.00;100574.88;4937202;29;20039;-85
2022/12/10 01:33:10;;;;;;;60.85;25.50;;;;;;;-3.26;100.00;100576.66;4957417;28;20066;-85
2022/12/10 01:35:37;;;;;;;60.78;25.20;;;;;;;-3.28;100.00;100583.50;4965217;28;20082;-79
2022/12/10 01:38:02;;;;;;;70.43;26.38;;;;;;;-3.30;100.00;100581.97;4950428;28;20404;-83
2022/12/10 01:40:28;;;;;;;63.47;26.90;;;;;;;-3.33;100.00;100580.41;4944321;28;20055;-80
2022/12/10 01:42:53;;;;;;;62.88;25.35;;;;;;;-3.33;100.00;100577.84;4932476;28;20046;-80
2022/12/10 01:45:19;;;;;;;62.58;25.02;;;;;;;-3.34;100.00;100583.81;4953285;28;20062;-86
2022/12/10 01:47:45;;;;;;;68.43;26.38;;;;;;;-3.36;100.00;100585.59;4951380;28;20067;-82
2022/12/10 01:50:10;;;;;;;61.08;25.25;;;;;;;-3.38;100.00;100595.81;4952059;28;20035;-83
2022/12/10 01:52:37;;;;;;;61.38;24.35;;;;;;;-3.41;100.00;100598.50;4937107;28;20524;-80
2022/12/10 01:55:26;;;;;;;56.28;25.05;;;;;;;-3.43;100.00;100594.38;4962722;28;20030;-80
2022/12/10 01:58:02;;;;;;;63.78;25.02;;;;;;;-3.44;100.00;100592.75;4932103;28;20044;-85
2022/12/10 02:00:28;;;;;;;67.03;25.58;;;;;;;-3.46;100.00;100599.63;4958043;28;20057;-81
2022/12/10 02:03:08;;;;;;;65.45;26.48;;;;;;;-3.46;100.00;100597.06;4950351;28;20035;-83
2022/12/10 02:05:36;;;;;;;67.88;26.05;;;;;;;-3.46;100.00;100602.16;4951988;28;20031;-84
2022/12/10 02:08:08;;;;;;;63.10;25.83;;;;;;;-3.46;100.00;100610.56;4953631;28;20045;-80
2022/12/10 02:10:59;;;;;;;61.97;26.50;;;;;;;-3.46;100.00;100609.75;4932470;28;20055;-85
2022/12/10 02:13:40;;;;;;;70.07;25.33;;;;;;;-3.48;100.00;100607.28;4944824;28;20047;-80
2022/12/10 02:16:15;;;;;;;69.70;26.88;;;;;;;-3.45;100.00;100611.38;4947794;28;20036;-86
2022/12/10 02:18:51;;;;;;;66.85;26.65;;;;;;;-3.40;100.00;100612.00;4949465;28;20084;-83
2022/12/10 02:21:24;;;;;;;65.93;25.70;;;;;;;-3.39;100.00;100603.47;4928297;29;20041;-81
2022/12/10 02:24:01;;;;;;;61.90;25.70;;;;;;;-3.39;100.00;100604.31;4959192;28;20050;-82
2022/12/10 02:26:43;;;;;;;66.15;27.13;;;;;;;-3.37;100.00;100604.22;4963172;28;20264;-81
2022/12/10 02:29:16;;;;;;;77.07;28.63;;;;;;;-3.35;100.00;100605.00;4933607;28;20404;-80
2022/12/10 02:31:46;;;;;;;82.70;29.70;;;;;;;-3.34;100.00;100604.09;4934896;29;20493;-82
2022/12/10 02:34:14;;;;;;;80.70;28.25;;;;;;;-3.31;100.00;100603.97;4954644;28;20057;-82
2022/12/10 02:36:44;;;;;;;83.90;31.35;;;;;;;-3.28;100.00;100605.53;4955803;28;20031;-82
2022/12/10 02:39:14;;;;;;;78.50;29.92;;;;;;;-3.27;100.00;100597.84;4951292;28;20407;-84
2022/12/10 02:41:52;;;;;;;78.72;30.80;;;;;;;-3.21;100.00;100594.19;4954596;28;20035;-81
2022/12/10 02:44:20;;;;;;;77.75;30.77;;;;;;;-3.20;100.00;100589.06;4933476;28;20031;-82
2022/12/10 02:46:49;;;;;;;88.35;31.52;;;;;;;-3.18;100.00;100601.69;4954796;28;20039;-80
2022/12/10 02:49:18;;;;;;;78.32;29.35;;;;;;;-3.19;100.00;100594.94;4939096;28;20027;-80
2022/12/10 02:51:43;;;;;;;89.28;32.22;;;;;;;-3.15;100.00;100606.59;4949183;28;20035;-81
2022/12/10 02:54:37;;;;;;;94.63;32.45;;;;;;;-3.11;100.00;100600.47;4938062;28;20397;-83
2022/12/10 02:57:08;;;;;;;98.00;34.75;;;;;;;-3.07;100.00;100586.78;4953413;28;20035;-83
2022/12/10 03:00:01;;;;;;;102.75;35.20;;;;;;;-3.01;100.00;100596.63;4947242;28;20087;-80
2022/12/10 03:02:51;;;;;;;91.45;33.22;;;;;;;-3.04;100.00;100596.75;4947412;28;20119;-80
2022/12/10 03:05:33;;;;;;;97.65;34.92;;;;;;;-3.03;100.00;100617.88;4937827;28;20187;-80
2022/12/10 03:08:09;;;;;;;97.60;33.22;;;;;;;-3.05;100.00;100615.44;4952026;28;20054;-80
2022/12/10 03:10:40;;;;;;;94.55;31.73;;;;;;;-3.04;100.00;100611.97;4931321;29;20039;-80
2022/12/10 03:13:32;;;;;;;84.88;31.73;;;;;;;-3.05;100.00;100612.88;4949850;28;20062;-82
2022/12/10 03:15:59;;;;;;;98.00;31.73;;;;;;;-3.04;100.00;100609.44;4952018;28;20484;-80
2022/12/10 03:18:26;;;;;;;94.43;32.38;;;;;;;-3.04;100.00;100617.06;4945963;28;20066;-80
2022/12/10 03:20:56;;;;;;;96.70;33.67;;;;;;;-3.05;100.00;100612.03;4936185;28;20031;-86
2022/12/10 03:23:22;;;;;;;97.78;32.70;;;;;;;-3.03;100.00;100612.78;4965229;28;20038;-80
2022/12/10 03:25:49;;;;;;;91.68;32.85;;;;;;;-3.00;100.00;100622.81;4939877;29;20065;-80
2022/12/10 03:28:18;;;;;;;91.75;32.78;;;;;;;-3.00;100.00;100622.81;4948988;28;20031;-81
2022/12/10 03:30:46;;;;;;;89.65;32.60;;;;;;;-3.01;100.00;100628.78;4950220;28;20095;-80
2022/12/10 03:33:12;;;;;;;94.03;32.83;;;;;;;-3.01;100.00;100621.19;4953846;28;20198;-81
2022/12/10 03:35:39;;;;;;;87.13;30.85;;;;;;;-2.99;100.00;100634.59;4956507;28;20035;-81
2022/12/10 03:38:05;;;;;;;89.05;30.85;;;;;;;-2.97;100.00;100635.34;4954368;28;20046;-80
2022/12/10 03:40:31;;;;;;;98.80;32.97;;;;;;;-2.96;100.00;100637.81;4973520;28;20031;-81
2022/12/10 03:42:56;;;;;;;93.80;33.50;;;;;;;-2.95;100.00;100642.00;4952768;28;20094;-80
2022/12/10 03:45:21;;;;;;;94.75;32.92;;;;;;;-2.92;100.00;100640.19;4961750;28;20031;-84
2022/12/10 03:47:49;;;;;;;97.65;33.33;;;;;;;-2.90;100.00;100640.94;4956861;28;20050;-84
2022/12/10 03:50:15;;;;;;;100.93;34.25;;;;;;;-2.88;100.00;100645.06;4971487;28;20529;-80
2022/12/10 03:52:40;;;;;;;107.55;34.92;;;;;;;-2.86;100.00;100638.19;4956551;28;20039;-80
2022/12/10 03:55:06;;;;;;;110.25;35.40;;;;;;;-2.82;100.00;100631.25;4956633;28;20395;-84
2022/12/10 03:57:32;;;;;;;100.97;35.28;;;;;;;-2.78;100.00;100630.22;4939754;28;20059;-82
2022/12/10 03:59:59;;;;;;;103.00;34.33;;;;;;;-2.77;100.00;100632.69;4954145;28;20039;-80
2022/12/10 04:02:24;;;;;;;95.03;34.03;;;;;;;-2.77;100.00;100629.31;4950398;28;20035;-82
2022/12/10 04:04:49;;;;;;;104.18;34.63;;;;;;;-2.75;100.00;100627.50;4939410;28;20082;-82
2022/12/10 04:07:15;;;;;;;101.40;33.47;;;;;;;-2.77;100.00;100630.16;4939755;28;20031;-81
2022/12/10 04:09:41;;;;;;;109.97;37.85;;;;;;;-2.76;100.00;100630.97;4954046;28;20047;-80
2022/12/10 04:12:06;;;;;;;111.63;36.35;;;;;;;-2.76;100.00;100623.34;4938270;28;20035;-81
2022/12/10 04:17:16;;;;;;;106.57;35.40;;;;;;;-2.79;100.00;100626.03;4971912;28;20280;-81
2022/12/10 04:19:42;;;;;;;103.47;35.95;;;;;;;-2.82;100.00;100619.38;4933466;28;20044;-83
2022/12/10 04:27:39;;;;;;;104.65;33.67;;;;;;;-2.85;100.00;100623.78;4952930;28;20070;-81
2022/12/10 04:30:07;;;;;;;93.65;32.75;;;;;;;-2.87;100.00;100623.84;4954902;28;20024;-80
2022/12/10 04:32:33;;;;;;;98.90;33.85;;;;;;;-2.91;100.00;100632.50;4939399;28;20093;-83
2022/12/10 04:34:58;;;;;;;90.45;31.88;;;;;;;-2.94;100.00;100630.97;4958609;28;20031;-80
2022/12/10 04:37:25;;;;;;;103.40;33.20;;;;;;;-2.96;100.00;100634.44;4956058;28;20210;-82
2022/12/10 04:39:51;;;;;;;86.45;30.20;;;;;;;-2.98;100.00;100637.03;4939781;28;20047;-80
2022/12/10 04:42:18;;;;;;;105.20;33.80;;;;;;;-3.01;100.00;100634.69;4972601;28;20043;-80
2022/12/10 04:44:44;;;;;;;94.43;32.95;;;;;;;-3.02;100.00;100632.22;4956773;28;20044;-83
2022/12/10 04:47:10;;;;;;;100.80;32.85;;;;;;;-3.05;100.00;100634.88;4960974;28;20077;-80
2022/12/10 04:49:36;;;;;;;96.85;33.67;;;;;;;-3.09;100.00;100633.38;4956401;28;20028;-84
2022/12/10 04:52:02;;;;;;;93.78;32.25;;;;;;;-3.11;100.00;100638.53;4936134;28;20485;-82
2022/12/10 04:54:28;;;;;;;110.07;35.38;;;;;;;-3.14;100.00;100633.63;4952307;28;20046;-82
2022/12/10 04:56:54;;;;;;;105.22;34.05;;;;;;;-3.18;100.00;100632.13;4968076;28;20382;-83
2022/12/10 04:59:20;;;;;;;89.57;33.38;;;;;;;-3.21;100.00;100635.59;4954737;28;20050;-82
2022/12/10 05:01:46;;;;;;;94.35;32.67;;;;;;;-3.22;100.00;100633.13;4939945;29;20105;-81
2022/12/10 05:04:13;;;;;;;101.13;33.90;;;;;;;-3.30;100.00;100633.50;4938307;28;20948;-81
2022/12/10 05:06:39;;;;;;;100.30;32.95;;;;;;;-3.36;100.00;100629.53;4933737;29;20378;-81
2022/12/10 05:09:05;;;;;;;100.28;32.05;;;;;;;-3.38;100.00;100631.31;4954311;28;20038;-80
2022/12/10 05:11:32;;;;;;;96.60;31.85;;;;;;;-3.41;100.00;100634.00;4941024;29;20042;-80
2022/12/10 05:13:58;;;;;;;95.57;32.83;;;;;;;-3.43;100.00;100647.63;4934921;28;20043;-80
2022/12/10 05:16:27;;;;;;;102.00;33.67;;;;;;;-3.46;100.00;100646.06;4955033;28;20389;-85
2022/12/10 05:18:53;;;;;;;102.72;34.45;;;;;;;-3.48;100.00;100636.88;4954424;28;20046;-83
2022/12/10 05:21:20;;;;;;;95.15;31.92;;;;;;;-3.52;100.00;100639.56;4952313;28;20038;-82
2022/12/10 05:23:48;;;;;;;88.65;32.85;;;;;;;-3.56;100.00;100633.00;4938796;28;20044;-81
2022/12/10 05:26:18;;;;;;;103.15;33.72;;;;;;;-3.57;100.00;100633.06;4965572;28;20035;-81
2022/12/10 05:28:46;;;;;;;95.20;32.55;;;;;;;-3.58;100.00;100634.78;4965579;28;20488;-83
2022/12/10 05:31:17;;;;;;;93.50;32.40;;;;;;;-3.59;100.00;100640.72;4951949;28;20049;-82
2022/12/10 05:33:43;;;;;;;93.60;32.53;;;;;;;-3.62;100.00;100638.31;4948923;28;20126;-82
2022/12/10 05:36:11;;;;;;;104.03;32.83;;;;;;;-3.63;100.00;100651.09;4955345;28;20045;-81
2022/12/10 05:38:39;;;;;;;92.78;31.83;;;;;;;-3.66;100.00;100644.41;4940630;28;20046;-83
2022/12/10 05:41:08;;;;;;;109.93;34.47;;;;;;;-3.68;100.00;100638.59;4953250;28;20489;-82
2022/12/10 05:43:34;;;;;;;113.55;37.22;;;;;;;-3.69;100.00;100639.50;4951039;28;20043;-81
2022/12/10 05:46:09;;;;;;;98.13;34.75;;;;;;;-3.73;100.00;100648.09;4961717;28;20119;-81
2022/12/10 05:48:35;;;;;;;95.65;32.72;;;;;;;-3.74;100.00;100639.69;4982515;28;20486;-81
2022/12/10 05:51:09;;;;;;;98.53;34.47;;;;;;;-3.76;100.00;100641.47;4966439;28;20118;-81
2022/12/10 05:53:34;;;;;;;104.85;35.03;;;;;;;-3.78;100.00;100645.78;4950884;28;20053;-82
2022/12/10 05:56:09;;;;;;;108.43;34.13;;;;;;;-3.78;100.00;100648.31;4941485;28;20040;-81
2022/12/10 05:58:35;;;;;;;104.50;35.92;;;;;;;-3.79;100.00;100653.47;4949469;28;20761;-81
2022/12/10 06:01:11;;;;;;;119.18;40.50;;;;;;;-3.79;100.00;100650.91;4982116;28;20062;-83
2022/12/10 06:03:36;;;;;;;116.78;39.75;;;;;;;-3.81;100.00;100650.16;4956779;28;20035;-80
2022/12/10 06:06:02;;;;;;;105.78;35.40;;;;;;;-3.83;100.00;100650.22;4953908;28;20665;-82
2022/12/10 06:08:28;;;;;;;102.97;35.85;;;;;;;-3.83;100.00;100655.28;4942431;28;20038;-83
2022/12/10 06:10:53;;;;;;;99.20;33.90;;;;;;;-3.84;100.00;100652.81;4954329;28;20050;-82
2022/12/10 06:13:19;;;;;;;99.32;34.47;;;;;;;-3.85;100.00;100658.81;4948626;28;20488;-81
2022/12/10 06:15:45;;;;;;;101.55;34.42;;;;;;;-3.83;100.00;100667.16;4963050;28;20043;-81
2022/12/10 06:18:10;;;;;;;100.18;35.58;;;;;;;-3.84;100.00;100666.34;4950343;28;20046;-82
2022/12/10 06:20:40;;;;;;;105.50;34.90;;;;;;;-3.82;100.00;100672.16;4936214;29;20031;-81
2022/12/10 06:23:06;;;;;;;99.35;32.78;;;;;;;-3.82;100.00;100672.16;4951380;28;20095;-80
2022/12/10 06:25:32;;;;;;;102.07;34.65;;;;;;;-3.78;100.00;100676.19;4938833;29;20559;-83
2022/12/10 06:27:58;;;;;;;105.38;35.08;;;;;;;-3.77;100.00;100672.78;4950667;28;20039;-81
2022/12/10 06:30:23;;;;;;;102.88;36.42;;;;;;;-3.73;100.00;100671.75;4931283;28;20046;-84
2022/12/10 06:32:49;;;;;;;105.50;37.50;;;;;;;-3.59;100.00;100671.13;4940778;28;20043;-88
2022/12/10 06:35:14;;;;;;;111.75;38.90;;;;;;;-3.47;100.00;100669.75;4953538;28;20038;-84
2022/12/10 06:37:40;;;;;;;113.95;38.15;;;;;;;-3.49;100.00;100680.88;4950376;28;20060;-80
2022/12/10 06:40:06;;;;;;;127.93;41.25;;;;;;;-3.49;100.00;100684.22;4954656;28;20035;-81
2022/12/10 06:42:31;;;;;;;132.00;43.83;;;;;;;-3.48;100.00;100687.56;4953825;28;20019;-84
2022/12/10 06:44:56;;;;;;;134.23;44.13;;;;;;;-3.39;100.00;100690.53;4952402;28;20086;-81
2022/12/10 06:47:22;;;;;;;132.93;42.67;;;;;;;-3.37;100.00;100696.38;4932470;28;20035;-80
2022/12/10 06:49:48;;;;;;;126.40;42.63;;;;;;;-3.34;100.00;100686.06;4956528;28;20041;-83
2022/12/10 06:52:14;;;;;;;134.35;41.65;;;;;;;-3.21;100.00;100696.47;4972267;28;20042;-82
2022/12/10 06:54:39;;;;;;;129.93;41.95;;;;;;;-3.15;100.00;100690.31;4953050;28;20085;-83
2022/12/10 06:57:05;;;;;;;144.73;42.92;;;;;;;-3.09;100.00;100701.88;4961848;28;20533;-83
2022/12/10 06:59:30;;;;;;;145.88;43.75;;;;;;;-3.13;100.00;100696.13;4958415;28;20039;-82
2022/12/10 07:01:56;;;;;;;148.52;44.13;;;;;;;-2.94;100.00;100696.94;4956612;28;20137;-82
2022/12/10 07:04:21;;;;;;;144.18;44.97;;;;;;;-2.99;100.00;100698.03;4953764;28;20035;-84
2022/12/10 07:06:47;;;;;;;148.32;42.53;;;;;;;-2.88;100.00;100702.59;4941206;28;20101;-86
2022/12/10 07:09:12;;;;;;;146.60;45.05;;;;;;;-2.99;100.00;100706.47;4976002;28;20051;-84
2022/12/10 07:11:38;;;;;;;148.18;44.42;;;;;;;-2.88;100.00;100705.97;4948418;28;20046;-83
2022/12/10 07:14:04;;;;;;;168.43;49.17;;;;;;;-2.87;100.00;100707.59;4955948;28;20126;-80
2022/12/10 07:16:32;;;;;;;148.30;44.53;;;;;;;-2.87;100.00;100706.78;4950649;28;20031;-82
2022/12/10 07:18:59;;;;;;;135.63;41.58;;;;;;;-2.94;100.00;100707.09;4936424;28;20102;-84
2022/12/10 07:21:31;;;;;;;149.10;46.10;;;;;;;-2.82;100.00;100708.22;4950778;28;20035;-83
2022/12/10 07:24:02;;;;;;;130.70;41.55;;;;;;;-2.72;100.00;100715.41;4954066;28;20039;-82
2022/12/10 07:26:30;;;;;;;135.57;41.95;;;;;;;-2.69;100.00;100720.31;4967661;28;20116;-82
2022/12/10 07:28:56;;;;;;;123.97;40.38;;;;;;;-2.74;100.00;100726.44;4937699;28;20096;-85
2022/12/10 07:31:22;;;;;;;110.22;35.63;;;;;;;-2.76;100.00;100720.63;4984801;28;20040;-82
2022/12/10 07:33:48;;;;;;;133.25;40.20;;;;;;;-2.77;100.00;100716.44;4953873;28;20571;-83
2022/12/10 07:36:14;;;;;;;124.70;39.17;;;;;;;-2.78;100.00;100724.13;4955941;28;20031;-83
2022/12/10 07:38:39;;;;;;;121.82;36.17;;;;;;;-2.81;100.00;100721.72;4960456;28;20148;-86
2022/12/10 07:41:08;;;;;;;118.63;34.83;;;;;;;-2.70;100.00;100719.50;4955394;28;20030;-80
2022/12/10 07:43:39;;;;;;;111.07;35.45;;;;;;;-2.72;100.00;100728.91;4937736;28;20039;-83
2022/12/10 07:46:17;;;;;;;106.60;35.65;;;;;;;-2.77;100.00;100728.31;4954032;28;20035;-82
2022/12/10 07:48:43;;;;;;;101.57;31.73;;;;;;;-2.69;100.00;100728.78;4974558;28;20114;-81
2022/12/10 07:51:09;;;;;;;110.13;35.63;;;;;;;-2.63;100.00;100736.09;4978236;28;20400;-85
2022/12/10 07:53:35;;;;;;;104.35;34.45;;;;;;;-2.62;100.00;100737.75;4945746;28;20040;-81
2022/12/10 07:56:01;;;;;;;87.72;30.30;;;;;;;-2.68;100.00;100735.47;4957090;28;20027;-82
2022/12/10 07:58:27;;;;;;;92.45;29.75;;;;;;;-2.68;100.00;100732.13;4969475;28;20039;-81
2022/12/10 08:00:53;;;;;;;86.18;30.88;;;;;;;-2.67;100.00;100736.34;4958285;28;20377;-83
2022/12/10 08:03:18;;;;;;;92.82;30.70;;;;;;;-2.64;100.00;100736.97;4957668;28;20051;-84
2022/12/10 08:05:44;;;;;;;90.03;29.55;;;;;;;-2.52;100.00;100734.75;4958218;28;20062;-82
2022/12/10 08:08:09;;;;;;;98.18;32.35;;;;;;;-2.46;100.00;100732.75;4937746;28;20042;-82
2022/12/10 08:10:37;;;;;;;87.35;31.13;;;;;;;-2.54;100.00;100734.84;4954820;28;20040;-84
2022/12/10 08:13:03;;;;;;;88.22;30.20;;;;;;;-2.45;100.00;100741.19;4957874;28;20102;-82
2022/12/10 08:15:29;;;;;;;86.60;29.25;;;;;;;-2.53;100.00;100738.19;4974509;28;20035;-81
2022/12/10 08:17:55;;;;;;;81.65;28.55;;;;;;;-2.53;100.00;100744.09;4955544;28;20054;-83
2022/12/10 08:20:22;;;;;;;84.63;27.92;;;;;;;-2.50;100.00;100748.22;4962071;28;20037;-81
2022/12/10 08:22:47;;;;;;;83.25;28.80;;;;;;;-2.45;100.00;100746.25;4954875;28;20047;-81
2022/12/10 08:25:13;;;;;;;94.00;32.90;;;;;;;-2.46;100.00;100747.19;4949773;28;20078;-81
2022/12/10 08:27:38;;;;;;;83.30;31.10;;;;;;;-2.38;100.00;100761.13;4957516;28;20495;-80
2022/12/10 08:30:05;;;;;;;96.10;34.10;;;;;;;-2.38;100.00;100753.50;4980235;28;20035;-84
2022/12/10 08:32:31;;;;;;;86.63;31.02;;;;;;;-2.39;100.00;100756.16;4959430;28;20066;-83
2022/12/10 08:34:56;;;;;;;86.65;32.22;;;;;;;-2.38;100.00;100766.22;4953902;28;20035;-83
2022/12/10 08:37:22;;;;;;;82.45;30.33;;;;;;;-2.37;100.00;100772.94;4961973;28;20122;-81
2022/12/10 08:39:47;;;;;;;82.28;31.23;;;;;;;-2.35;100.00;100766.09;4945849;28;20043;-81
2022/12/10 08:42:13;;;;;;;86.97;31.50;;;;;;;-2.20;100.00;100773.88;4962728;28;20144;-84
2022/12/10 08:44:39;;;;;;;89.40;30.45;;;;;;;-2.18;100.00;100777.16;4974370;28;20568;-83
2022/12/10 08:47:04;;;;;;;83.28;30.60;;;;;;;-2.20;100.00;100779.75;4959631;28;20502;-84
2022/12/10 08:49:29;;;;;;;91.85;30.77;;;;;;;-2.10;100.00;100782.69;4960057;28;20039;-83
2022/12/10 08:51:55;;;;;;;93.50;32.15;;;;;;;-2.14;100.00;100790.53;4976423;28;20039;-82
2022/12/10 08:54:20;;;;;;;93.18;32.38;;;;;;;-2.01;100.00;100792.41;4957476;28;20098;-83
2022/12/10 08:56:46;;;;;;;87.70;32.28;;;;;;;-2.06;100.00;100786.69;4969521;28;20040;-81
2022/12/10 08:59:11;;;;;;;96.95;35.38;;;;;;;-2.02;100.00;100783.09;4969920;28;20051;-82
2022/12/10 09:01:37;;;;;;;94.82;34.03;;;;;;;-1.89;100.00;100790.16;4952630;28;20036;-85
2022/12/10 09:04:02;;;;;;;96.60;35.80;;;;;;;-1.90;100.00;100794.41;4957126;28;20036;-85
2022/12/10 09:06:28;;;;;;;91.85;33.00;;;;;;;-1.81;100.00;100793.13;4961287;28;20114;-85
2022/12/10 09:08:54;;;;;;;90.75;33.85;;;;;;;-1.88;100.00;100799.44;4975862;28;20031;-82
2022/12/10 09:11:25;;;;;;;97.72;33.95;;;;;;;-1.89;100.00;100798.59;4950574;28;20031;-83
2022/12/10 09:13:51;;;;;;;104.72;35.42;;;;;;;-1.83;100.00;100792.38;4958546;28;20136;-85
2022/12/10 09:16:16;;;;;;;98.18;34.00;;;;;;;-1.85;100.00;100800.06;4967497;28;20031;-84
2022/12/10 09:18:42;;;;;;;93.05;31.65;;;;;;;-1.83;100.00;100805.94;4973472;28;20054;-82
2022/12/10 09:21:12;;;;;;;93.75;32.35;;;;;;;-1.74;100.00;100807.19;4960362;28;20031;-81
2022/12/10 09:23:38;;;;;;;90.88;29.40;;;;;;;-1.71;100.00;100803.66;4954302;28;20073;-82
2022/12/10 09:26:09;;;;;;;81.75;29.73;;;;;;;-1.69;100.00;100812.03;4965995;28;20046;-83
2022/12/10 09:28:35;;;;;;;82.88;28.67;;;;;;;-1.63;100.00;100816.81;4952137;28;20043;-82
2022/12/10 09:31:02;;;;;;;78.75;29.67;;;;;;;-1.70;100.00;100802.75;4957055;28;20042;-83
2022/12/10 09:33:28;;;;;;;91.85;30.15;;;;;;;-1.76;100.00;100819.16;4952557;28;20051;-82
2022/12/10 09:35:54;;;;;;;93.60;30.35;;;;;;;-1.65;100.00;100814.34;4953611;28;20027;-83
2022/12/10 09:38:19;;;;;;;95.53;30.65;;;;;;;-1.59;100.00;100815.75;4958489;28;20102;-82
2022/12/10 09:41:00;;;;;;;87.40;30.25;;;;;;;-1.62;100.00;100806.56;4957793;28;20046;-82
2022/12/10 09:43:35;;;;;;;91.07;30.42;;;;;;;-1.70;100.00;100802.75;4955554;28;20061;-81
2022/12/10 09:46:12;;;;;;;86.40;30.85;;;;;;;-1.74;100.00;100803.81;4953980;28;20091;-85
2022/12/10 09:48:59;;;;;;;90.03;31.25;;;;;;;-1.74;100.00;100814.00;4951220;28;20036;-80
2022/12/10 09:51:35;;;;;;;99.30;31.58;;;;;;;-1.68;100.00;100808.59;4952510;28;20844;-81
2022/12/10 09:54:04;;;;;;;102.60;35.30;;;;;;;-1.68;100.00;100804.31;4944796;28;20039;-79
2022/12/10 09:56:35;;;;;;;97.75;32.38;;;;;;;-1.65;100.00;100811.00;4951156;28;20118;-78
2022/12/10 09:59:10;;;;;;;95.40;31.55;;;;;;;-1.46;100.00;100808.34;4947149;28;20047;-81
2022/12/10 10:01:37;;;;;;;94.93;31.02;;;;;;;-1.48;100.00;100817.78;4949640;28;20036;-79
2022/12/10 10:04:04;;;;;;;90.32;31.05;;;;;;;-1.57;100.00;100811.41;4949528;28;20039;-79
2022/12/10 10:06:30;;;;;;;94.95;31.27;;;;;;;-1.54;100.00;100818.06;4970577;28;20045;-82
2022/12/10 10:09:00;;;;;;;134.38;45.88;;;;;;;-1.44;100.00;100817.53;4951754;28;20039;-82
2022/12/10 10:11:32;;;;;;;103.97;34.70;;;;;;;-1.48;100.00;100816.03;4971440;28;20042;-81
2022/12/10 10:14:19;;;;;;;95.28;30.85;;;;;;;-1.54;100.00;100818.06;4945448;28;20158;-81
2022/12/10 10:16:58;;;;;;;90.35;31.70;;;;;;;-1.35;100.00;100810.34;4952912;28;20258;-82
2022/12/10 10:19:29;;;;;;;87.75;29.17;;;;;;;-1.35;100.00;100806.06;4967733;28;20048;-83
2022/12/10 10:21:55;;;;;;;86.47;30.20;;;;;;;-1.34;100.00;100817.88;4964449;28;20489;-84
2022/12/10 10:24:31;;;;;;;83.85;29.38;;;;;;;-1.23;100.00;100807.97;4947048;28;20050;-83
2022/12/10 10:27:01;;;;;;;82.20;31.17;;;;;;;-1.08;100.00;100813.97;4969253;28;20299;-81
2022/12/10 10:29:27;;;;;;;85.80;34.28;;;;;;;-1.12;100.00;100809.94;4965191;28;20129;-83
2022/12/10 10:32:19;;;;;;;95.05;31.17;;;;;;;-1.14;100.00;100810.94;4953359;28;20070;-84
2022/12/10 10:34:51;;;;;;;96.97;35.33;;;;;;;-1.09;100.00;100808.97;4948819;28;20595;-81
2022/12/10 10:37:41;;;;;;;95.10;34.30;;;;;;;-1.16;100.00;100802.56;4935561;29;20040;-83
2022/12/10 10:40:48;;;;;;;89.55;30.75;;;;;;;-1.10;100.00;100808.13;4913335;29;20048;-82
2022/12/10 10:43:31;;;;;;;98.75;35.00;;;;;;;-1.05;100.00;100807.91;4939815;28;20042;-82
2022/12/10 10:46:02;;;;;;;88.95;32.25;;;;;;;-1.11;100.00;100796.34;4948096;28;20558;-82
2022/12/10 10:48:28;;;;;;;88.20;29.88;;;;;;;-1.13;100.00;100797.28;4955507;28;20075;-82
2022/12/10 10:51:12;;;;;;;79.82;28.33;;;;;;;-1.14;100.00;100796.47;4952927;28;20027;-82
2022/12/10 10:53:37;;;;;;;89.55;32.17;;;;;;;-1.11;100.00;100800.59;4953181;28;20051;-82
2022/12/10 10:56:27;;;;;;;89.55;31.75;;;;;;;-1.09;100.00;100799.63;4952863;28;20121;-84
2022/12/10 10:58:56;;;;;;;91.05;33.03;;;;;;;-1.00;100.00;100798.28;4959467;28;20499;-82
2022/12/10 11:01:24;;;;;;;89.85;30.75;;;;;;;-0.87;100.00;100795.91;4943083;29;20054;-85
2022/12/10 11:03:55;;;;;;;87.53;28.70;;;;;;;-0.88;100.00;100792.56;4970098;28;20039;-82
2022/12/10 11:06:21;;;;;;;90.30;30.05;;;;;;;-0.96;100.00;100789.63;4979509;28;20035;-81
2022/12/10 11:08:48;;;;;;;91.05;31.95;;;;;;;-0.91;100.00;100797.00;4949585;28;20035;-80
2022/12/10 11:11:32;;;;;;;92.50;32.35;;;;;;;-0.93;100.00;100793.72;4957347;28;20121;-86
2022/12/10 11:14:14;;;;;;;90.15;31.10;;;;;;;-0.95;100.00;100790.44;4956059;28;20058;-83
2022/12/10 11:16:40;;;;;;;86.00;31.05;;;;;;;-0.85;100.00;100794.09;4952751;28;20040;-82